TimeCDT,TemperatureF,Dew PointF,Humidity,Sea Level PressureIn,VisibilityMPH,Wind Direction,Wind SpeedMPH,Gust SpeedMPH,PrecipitationIn,Events,Conditions,WindDirDegrees,DateUTC
12:15 AM,81.3,61.2,50,29.95,10.0,SSW,11.5,17.3,N/A,,Clear,200,2013-08-21 05:15:00
12:35 AM,81.0,61.2,51,29.95,10.0,SSW,11.5,-,N/A,,Clear,200,2013-08-21 05:35:00
12:55 AM,80.6,61.3,52,29.96,10.0,SSW,11.5,18.4,N/A,,Clear,210,2013-08-21 05:55:00
1:15 AM,80.1,61.3,53,29.96,10.0,SSW,12.7,-,N/A,,Clear,200,2013-08-21 06:15:00
1:35 AM,79.0,61.3,55,29.96,10.0,SSW,11.5,-,N/A,,Clear,210,2013-08-21 06:35:00
1:55 AM,77.9,61.7,57,29.96,10.0,SSW,10.4,-,N/A,,Clear,210,2013-08-21 06:55:00
2:15 AM,77.5,61.7,58,29.96,10.0,SSW,9.2,-,N/A,,Clear,210,2013-08-21 07:15:00
2:35 AM,77.0,61.3,58,29.96,10.0,SSW,5.8,-,N/A,,Clear,200,2013-08-21 07:35:00
2:55 AM,76.6,61.3,59,29.97,10.0,SW,3.5,-,N/A,,Clear,230,2013-08-21 07:55:00
3:15 AM,77.9,61.0,56,29.97,10.0,SW,5.8,-,N/A,,Clear,220,2013-08-21 08:15:00
3:35 AM,77.5,61.9,58,29.97,10.0,WSW,5.8,-,N/A,,Scattered Clouds,240,2013-08-21 08:35:00
3:55 AM,77.4,61.0,57,29.96,10.0,SW,8.1,-,N/A,,Scattered Clouds,220,2013-08-21 08:55:00
4:15 AM,76.5,61.2,59,29.96,10.0,SW,11.5,-,N/A,,Clear,220,2013-08-21 09:15:00
4:35 AM,76.3,61.0,59,29.96,10.0,SW,9.2,-,N/A,,Clear,220,2013-08-21 09:35:00
4:55 AM,73.8,61.3,65,29.96,10.0,Calm,Calm,-,N/A,,Clear,0,2013-08-21 09:55:00
5:15 AM,73.2,61.2,66,29.96,10.0,Calm,Calm,-,N/A,,Clear,0,2013-08-21 10:15:00
5:35 AM,70.5,61.3,73,29.96,10.0,Calm,Calm,-,N/A,,Clear,0,2013-08-21 10:35:00
5:55 AM,69.6,61.9,76,29.96,10.0,Calm,Calm,-,N/A,,Clear,0,2013-08-21 10:55:00
6:15 AM,69.1,61.7,77,29.96,10.0,SSE,3.5,-,N/A,,Clear,150,2013-08-21 11:15:00
6:35 AM,68.9,62.2,79,29.97,10.0,Calm,Calm,-,N/A,,Clear,0,2013-08-21 11:35:00
6:55 AM,69.3,62.4,79,29.97,10.0,Calm,Calm,-,N/A,,Clear,0,2013-08-21 11:55:00
7:15 AM,69.3,62.8,80,29.97,10.0,Calm,Calm,-,N/A,,Clear,0,2013-08-21 12:15:00
7:35 AM,69.4,63.0,80,29.97,10.0,ESE,4.6,-,N/A,,Clear,120,2013-08-21 12:35:00
7:55 AM,70.9,62.8,75,29.98,10.0,Calm,Calm,-,N/A,,Clear,0,2013-08-21 12:55:00
8:15 AM,71.8,62.8,73,29.97,10.0,East,3.5,-,N/A,,Scattered Clouds,80,2013-08-21 13:15:00
8:35 AM,71.8,63.1,74,30.00,10.0,West,3.5,-,N/A,,Scattered Clouds,280,2013-08-21 13:35:00
8:55 AM,72.7,63.9,74,30.00,10.0,Calm,Calm,-,N/A,,Clear,0,2013-08-21 13:55:00
9:15 AM,73.4,63.5,71,29.99,10.0,SSE,5.8,-,N/A,,Clear,150,2013-08-21 14:15:00
9:35 AM,74.7,63.3,68,30.00,10.0,Calm,Calm,-,N/A,,Clear,0,2013-08-21 14:35:00
9:55 AM,75.9,63.1,64,30.00,10.0,Calm,Calm,-,N/A,,Clear,0,2013-08-21 14:55:00
10:15 AM,77.0,63.1,62,29.99,10.0,South,4.6,-,N/A,,Clear,170,2013-08-21 15:15:00
10:35 AM,78.1,63.0,60,30.00,10.0,SSW,3.5,-,N/A,,Clear,210,2013-08-21 15:35:00
10:55 AM,80.1,63.3,56,30.00,10.0,South,4.6,-,N/A,,Clear,180,2013-08-21 15:55:00
11:15 AM,81.3,63.9,55,29.99,10.0,Calm,Calm,-,N/A,,Clear,0,2013-08-21 16:15:00
11:35 AM,83.5,63.5,51,30.00,10.0,SSW,3.5,-,N/A,,Clear,210,2013-08-21 16:35:00
11:55 AM,84.4,63.7,50,29.99,10.0,Calm,Calm,-,N/A,,Clear,0,2013-08-21 16:55:00
12:15 PM,85.3,64.0,49,30.00,10.0,South,3.5,-,N/A,,Clear,180,2013-08-21 17:15:00
12:35 PM,85.5,64.0,49,30.00,10.0,Calm,Calm,-,N/A,,Clear,0,2013-08-21 17:35:00
12:55 PM,86.4,64.4,48,30.00,10.0,Calm,Calm,-,N/A,,Clear,0,2013-08-21 17:55:00
1:15 PM,88.0,64.6,46,30.00,10.0,ENE,4.6,-,N/A,,Clear,60,2013-08-21 18:15:00
1:35 PM,88.2,66.2,48,30.00,10.0,NNE,4.6,-,N/A,,Clear,20,2013-08-21 18:35:00
1:55 PM,88.5,65.7,47,29.99,10.0,NNE,4.6,-,N/A,,Clear,30,2013-08-21 18:55:00
2:15 PM,90.0,65.8,45,29.99,10.0,NNE,5.8,-,N/A,,Clear,20,2013-08-21 19:15:00
2:35 PM,90.1,66.2,45,29.99,10.0,NE,10.4,-,N/A,,Clear,40,2013-08-21 19:35:00
2:55 PM,90.7,66.0,44,29.99,10.0,ENE,8.1,-,N/A,,Clear,70,2013-08-21 19:55:00
3:15 PM,91.4,65.7,42,29.98,10.0,ENE,9.2,-,N/A,,Clear,70,2013-08-21 20:15:00
3:35 PM,91.4,66.4,44,29.98,10.0,ENE,9.2,-,N/A,,Clear,70,2013-08-21 20:35:00
3:55 PM,92.7,66.4,42,29.98,10.0,East,8.1,-,N/A,,Clear,90,2013-08-21 20:55:00
4:15 PM,93.2,62.6,36,29.98,10.0,SSE,8.1,-,N/A,,Clear,150,2013-08-21 21:15:00
4:35 PM,93.6,61.0,34,29.98,10.0,SSE,9.2,-,N/A,,Clear,160,2013-08-21 21:35:00
4:55 PM,92.8,63.3,37,29.98,10.0,SSE,5.8,9.2,N/A,,Clear,150,2013-08-21 21:55:00
5:15 PM,91.6,63.7,39,29.98,10.0,SSE,9.2,-,N/A,,Clear,150,2013-08-21 22:15:00
5:35 PM,90.9,63.5,40,29.98,10.0,SE,5.8,-,N/A,Thunderstorm,Clear,140,2013-08-21 22:35:00
5:55 PM,91.8,63.9,39,29.97,10.0,SE,6.9,-,N/A,,Clear,140,2013-08-21 22:55:00
6:15 PM,90.1,63.1,40,29.98,10.0,SSE,6.9,-,N/A,,Clear,160,2013-08-21 23:15:00
6:35 PM,88.9,64.2,44,29.98,10.0,SE,3.5,-,N/A,,Clear,140,2013-08-21 23:35:00
6:55 PM,86.0,68.0,55,29.98,10.0,NE,5.8,-,N/A,,Scattered Clouds,50,2013-08-21 23:55:00
7:15 PM,83.3,65.3,54,29.97,10.0,NE,15.0,21.9,N/A,Thunderstorm,Scattered Clouds,40,2013-08-22 00:15:00
7:35 PM,82.4,65.3,56,29.99,10.0,NNE,15.0,21.9,N/A,Thunderstorm,Scattered Clouds,30,2013-08-22 00:35:00
7:55 PM,81.0,67.3,63,29.99,10.0,NNE,13.8,-,N/A,Thunderstorm,Clear,30,2013-08-22 00:55:00
8:15 PM,80.1,66.4,63,30.00,10.0,NNE,15.0,20.7,N/A,Thunderstorm,Scattered Clouds,30,2013-08-22 01:15:00
8:35 PM,77.2,63.5,63,30.00,10.0,NNE,15.0,24.2,N/A,Thunderstorm,Mostly Cloudy,30,2013-08-22 01:35:00
8:55 PM,73.6,61.7,66,30.02,10.0,NNE,17.3,31.1,N/A,Thunderstorm,Scattered Clouds,20,2013-08-22 01:55:00
9:15 PM,70.5,61.0,72,30.00,10.0,NNE,15.0,25.3,N/A,Thunderstorm,Thunderstorm,20,2013-08-22 02:15:00
9:35 PM,68.9,61.7,78,30.04,10.0,NNE,15.0,20.7,N/A,Thunderstorm,Mostly Cloudy,30,2013-08-22 02:35:00
9:55 PM,68.5,60.4,75,30.06,10.0,NNE,20.7,27.6,N/A,Thunderstorm,Overcast,30,2013-08-22 02:55:00
10:15 PM,70.0,60.8,73,30.04,10.0,NE,16.1,24.2,N/A,Thunderstorm,Thunderstorm,40,2013-08-22 03:15:00
10:35 PM,70.2,61.9,75,30.05,10.0,NE,16.1,23.0,N/A,Thunderstorm,Clear,40,2013-08-22 03:35:00
10:55 PM,69.6,62.2,77,30.07,10.0,NNE,6.9,-,N/A,Rain,Light Rain,20,2013-08-22 03:55:00
11:15 PM,68.2,63.5,85,30.10,10.0,North,10.4,16.1,N/A,Rain-Thunderstorm,Light Thunderstorms and Rain,360,2013-08-22 04:15:00
11:35 PM,67.3,63.9,89,30.05,7.0,ENE,11.5,26.5,0.01,Rain-Thunderstorm,Light Thunderstorms and Rain,70,2013-08-22 04:35:00
11:55 PM,67.5,64.2,89,30.07,10.0,East,16.1,-,0.01,Rain-Thunderstorm,Light Thunderstorms and Rain,90,2013-08-22 04:55:00